createdAt,value
2017-03-02T00:00:14.536Z,0
2017-03-02T00:01:14.065Z,0
2017-03-02T00:02:14.482Z,0
2017-03-02T00:03:14.528Z,0
2017-03-02T00:04:14.529Z,0
2017-03-02T00:05:14.592Z,0
2017-03-02T00:06:14.179Z,0
2017-03-02T00:07:14.491Z,0
2017-03-02T00:08:14.567Z,0
2017-03-02T00:09:14.464Z,0
2017-03-02T00:10:16.367Z,0
2017-03-02T00:11:14.132Z,0
2017-03-02T00:12:14.749Z,0
2017-03-02T00:13:15.023Z,0
2017-03-02T00:14:28.626Z,0
2017-03-02T00:15:14.596Z,0
2017-03-02T00:16:13.751Z,0
2017-03-02T00:17:14.512Z,0
2017-03-02T00:18:14.577Z,0
2017-03-02T00:19:14.610Z,0
2017-03-02T00:20:14.214Z,0
2017-03-02T00:21:15.444Z,0
2017-03-02T00:22:14.239Z,0
2017-03-02T00:23:14.545Z,0
2017-03-02T00:24:14.557Z,0
2017-03-02T00:25:13.407Z,0
2017-03-02T00:26:13.859Z,0
2017-03-02T00:27:14.657Z,0
2017-03-02T00:28:14.267Z,0
2017-03-02T00:29:14.628Z,0
2017-03-02T00:30:13.975Z,0
2017-03-02T00:31:14.582Z,0
2017-03-02T00:32:15.781Z,0
2017-03-02T00:33:14.245Z,0
2017-03-02T00:34:14.464Z,0
2017-03-02T00:35:14.344Z,0
2017-03-02T00:36:14.276Z,0
2017-03-02T00:37:14.930Z,0
2017-03-02T00:38:14.764Z,0
2017-03-02T00:39:14.385Z,0
2017-03-02T00:40:13.843Z,0
2017-03-02T00:41:14.768Z,0
2017-03-02T00:42:14.703Z,0
2017-03-02T00:43:15.606Z,0
2017-03-02T00:44:14.364Z,0
2017-03-02T00:45:14.765Z,0
2017-03-02T00:46:14.377Z,0
2017-03-02T00:47:14.664Z,0
2017-03-02T00:48:14.725Z,0
2017-03-02T00:49:14.734Z,0
2017-03-02T00:50:14.806Z,0
2017-03-02T00:51:14.395Z,0
2017-03-02T00:52:15.101Z,0
2017-03-02T00:53:14.772Z,0
2017-03-02T00:54:16.079Z,0
2017-03-02T00:55:13.975Z,0
2017-03-02T00:56:15.080Z,0
2017-03-02T00:57:14.445Z,0
2017-03-02T00:58:14.654Z,0
2017-03-02T00:59:14.349Z,0
2017-03-02T01:00:14.769Z,0
2017-03-02T01:01:14.374Z,0
2017-03-02T01:02:14.877Z,0
2017-03-02T01:03:15.026Z,0
2017-03-02T01:04:14.462Z,0
2017-03-02T01:05:14.041Z,0
2017-03-02T01:06:14.450Z,0
2017-03-02T01:07:15.095Z,0
2017-03-02T01:08:14.848Z,0
2017-03-02T01:09:14.537Z,0
2017-03-02T01:10:14.523Z,0
2017-03-02T01:11:14.929Z,0
2017-03-02T01:12:14.838Z,0
2017-03-02T01:13:14.487Z,0
2017-03-02T01:14:14.894Z,0
2017-03-02T01:15:14.942Z,0
2017-03-02T01:16:15.494Z,0
2017-03-02T01:17:15.662Z,0
2017-03-02T01:18:14.961Z,0
2017-03-02T01:19:14.918Z,0
2017-03-02T01:20:15.982Z,0
2017-03-02T01:21:14.900Z,0
2017-03-02T01:22:14.929Z,0
2017-03-02T01:23:14.535Z,0
2017-03-02T01:24:14.948Z,0
2017-03-02T01:25:15.004Z,0
2017-03-02T01:26:14.950Z,0
2017-03-02T01:27:15.367Z,0
2017-03-02T01:28:15.041Z,0
2017-03-02T01:29:14.533Z,0
2017-03-02T01:30:15.050Z,0
2017-03-02T01:31:15.741Z,0
2017-03-02T01:32:15.007Z,0
2017-03-02T01:33:15.065Z,0
2017-03-02T01:34:15.062Z,0
2017-03-02T01:35:15.058Z,0
2017-03-02T01:36:15.034Z,0
2017-03-02T01:37:15.030Z,0
2017-03-02T01:38:15.085Z,0
2017-03-02T01:39:14.642Z,0
2017-03-02T01:40:14.646Z,0
2017-03-02T01:41:15.123Z,0
2017-03-02T01:42:15.855Z,0
2017-03-02T01:43:15.106Z,0
2017-03-02T01:44:14.719Z,0
2017-03-02T01:45:14.275Z,0
2017-03-02T01:46:15.080Z,0
2017-03-02T01:47:15.082Z,0
2017-03-02T01:48:15.163Z,0
2017-03-02T01:49:15.211Z,0
2017-03-02T01:50:15.059Z,0
2017-03-02T01:51:16.069Z,0
2017-03-02T01:52:14.258Z,0
2017-03-02T01:53:15.367Z,0
2017-03-02T01:54:15.202Z,0
2017-03-02T01:55:16.066Z,0
2017-03-02T01:56:15.102Z,0
2017-03-02T01:57:14.799Z,0
2017-03-02T01:58:15.292Z,0
2017-03-02T01:59:15.214Z,0
2017-03-02T02:00:15.114Z,0
2017-03-02T02:01:14.711Z,0
2017-03-02T02:02:15.957Z,0
2017-03-02T02:03:15.255Z,0
2017-03-02T02:04:15.141Z,0
2017-03-02T02:05:15.263Z,0
2017-03-02T02:06:16.705Z,0
2017-03-02T02:07:14.806Z,0
2017-03-02T02:08:15.176Z,0
2017-03-02T02:09:14.362Z,0
2017-03-02T02:10:14.871Z,0
2017-03-02T02:11:14.891Z,0
2017-03-02T02:12:15.644Z,0
2017-03-02T02:13:16.176Z,0
2017-03-02T02:14:15.271Z,0
2017-03-02T02:15:15.598Z,0
2017-03-02T02:16:14.939Z,0
2017-03-02T02:17:16.696Z,0
2017-03-02T02:18:14.472Z,0
2017-03-02T02:19:15.339Z,0
2017-03-02T02:20:14.596Z,0
2017-03-02T02:21:15.384Z,0
2017-03-02T02:22:14.496Z,0
2017-03-02T02:23:15.399Z,0
2017-03-02T02:24:15.286Z,0
2017-03-02T02:25:14.732Z,0
2017-03-02T02:26:15.384Z,0
2017-03-02T02:27:15.281Z,0
2017-03-02T02:28:16.585Z,0
2017-03-02T02:29:15.050Z,0
2017-03-02T02:30:14.897Z,0
2017-03-02T02:31:15.254Z,0
2017-03-02T02:32:15.414Z,0
2017-03-02T02:33:15.373Z,0
2017-03-02T02:34:15.450Z,0
2017-03-02T02:35:14.969Z,0
2017-03-02T02:36:15.506Z,0
2017-03-02T02:37:15.424Z,0
2017-03-02T02:38:15.385Z,0
2017-03-02T02:39:16.297Z,0
2017-03-02T02:40:15.009Z,0
2017-03-02T02:41:15.027Z,0
2017-03-02T02:42:15.017Z,0
2017-03-02T02:43:14.222Z,0
2017-03-02T02:44:14.890Z,0
2017-03-02T02:45:14.631Z,0
2017-03-02T02:46:15.506Z,0
2017-03-02T02:47:15.560Z,0
2017-03-02T02:48:15.402Z,0
2017-03-02T02:49:15.099Z,0
2017-03-02T02:50:16.106Z,0
2017-03-02T02:51:15.113Z,0
2017-03-02T02:52:15.568Z,0
2017-03-02T02:53:16.239Z,0
2017-03-02T02:54:15.529Z,0
2017-03-02T02:55:15.030Z,0
2017-03-02T02:56:15.145Z,0
2017-03-02T02:57:14.723Z,0
2017-03-02T02:58:15.548Z,0
2017-03-02T02:59:16.454Z,0
2017-03-02T03:00:14.739Z,0
2017-03-02T03:01:15.705Z,0
2017-03-02T03:02:14.788Z,0
2017-03-02T03:03:17.002Z,0
2017-03-02T03:04:15.493Z,0
2017-03-02T03:05:15.636Z,0
2017-03-02T03:06:15.506Z,0
2017-03-02T03:07:15.660Z,0
2017-03-02T03:08:15.607Z,0
2017-03-02T03:09:15.588Z,0
2017-03-02T03:10:15.589Z,0
2017-03-02T03:11:15.593Z,0
2017-03-02T03:12:15.496Z,0
2017-03-02T03:13:15.265Z,0
2017-03-02T03:14:44.637Z,0
2017-03-02T03:15:15.603Z,0
2017-03-02T03:16:15.676Z,0
2017-03-02T03:17:15.216Z,0
2017-03-02T03:18:14.828Z,0
2017-03-02T03:19:15.632Z,0
2017-03-02T03:20:15.343Z,0
2017-03-02T03:21:15.315Z,0
2017-03-02T03:22:15.708Z,0
2017-03-02T03:23:15.372Z,0
2017-03-02T03:24:15.725Z,0
2017-03-02T03:25:16.909Z,0
2017-03-02T03:26:15.632Z,0
2017-03-02T03:27:15.723Z,0
2017-03-02T03:28:15.752Z,0
2017-03-02T03:29:15.347Z,0
2017-03-02T03:30:15.304Z,0
2017-03-02T03:31:15.679Z,0
2017-03-02T03:32:15.701Z,0
2017-03-02T03:33:15.341Z,0
2017-03-02T03:34:15.713Z,0
2017-03-02T03:35:15.736Z,0
2017-03-02T03:36:16.851Z,0
2017-03-02T03:37:15.791Z,0
2017-03-02T03:38:15.359Z,0
2017-03-02T03:39:16.751Z,0
2017-03-02T03:40:15.880Z,0
2017-03-02T03:41:15.756Z,0
2017-03-02T03:42:15.378Z,0
2017-03-02T03:43:15.549Z,0
2017-03-02T03:44:16.044Z,0
2017-03-02T03:45:16.140Z,0
2017-03-02T03:46:15.735Z,0
2017-03-02T03:47:16.315Z,0
2017-03-02T03:48:15.505Z,0
2017-03-02T03:49:15.837Z,0
2017-03-02T03:50:15.853Z,0
2017-03-02T03:51:15.384Z,0
2017-03-02T03:52:15.831Z,0
2017-03-02T03:53:15.914Z,0
2017-03-02T03:54:15.588Z,0
2017-03-02T03:55:15.936Z,0
2017-03-02T03:56:15.970Z,0
2017-03-02T03:57:15.516Z,0
2017-03-02T03:58:16.886Z,0
2017-03-02T03:59:15.825Z,0
2017-03-02T04:00:15.484Z,0
2017-03-02T04:01:15.435Z,0
2017-03-02T04:02:15.479Z,0
2017-03-02T04:03:15.960Z,0
2017-03-02T04:04:15.982Z,0
2017-03-02T04:05:15.991Z,0
2017-03-02T04:06:15.564Z,0
2017-03-02T04:07:16.623Z,0
2017-03-02T04:08:15.970Z,0
2017-03-02T04:09:16.584Z,0
2017-03-02T04:10:15.890Z,0
2017-03-02T04:11:15.629Z,0
2017-03-02T04:12:15.567Z,0
2017-03-02T04:13:16.751Z,0
2017-03-02T04:14:16.165Z,0
2017-03-02T04:15:15.932Z,0
2017-03-02T04:16:15.995Z,0
2017-03-02T04:17:15.573Z,0
2017-03-02T04:18:15.628Z,0
2017-03-02T04:19:16.012Z,0
2017-03-02T04:20:16.597Z,0
2017-03-02T04:21:16.019Z,0
2017-03-02T04:22:16.059Z,0
2017-03-02T04:23:15.576Z,0
2017-03-02T04:24:16.569Z,0
2017-03-02T04:25:16.383Z,0
2017-03-02T04:26:15.585Z,0
2017-03-02T04:27:16.998Z,0
2017-03-02T04:28:16.043Z,0
2017-03-02T04:29:16.011Z,0
2017-03-02T04:30:15.711Z,0
2017-03-02T04:31:17.909Z,0
2017-03-02T04:32:16.023Z,0
2017-03-02T04:33:17.607Z,0
2017-03-02T04:34:15.226Z,0
2017-03-02T04:35:16.456Z,0
2017-03-02T04:36:16.032Z,0
2017-03-02T04:37:16.195Z,0
2017-03-02T04:38:16.097Z,0
2017-03-02T04:39:16.171Z,0
2017-03-02T04:40:15.722Z,0
2017-03-02T04:41:15.666Z,0
2017-03-02T04:42:15.721Z,0
2017-03-02T04:43:15.393Z,0
2017-03-02T04:44:17.262Z,0
2017-03-02T04:45:15.855Z,0
2017-03-02T04:46:16.126Z,0
2017-03-02T04:47:16.194Z,0
2017-03-02T04:48:15.774Z,0
2017-03-02T04:49:16.263Z,0
2017-03-02T04:50:16.217Z,0
2017-03-02T04:51:15.848Z,0
2017-03-02T04:52:15.783Z,0
2017-03-02T04:53:16.214Z,0
2017-03-02T04:54:16.189Z,0
2017-03-02T04:55:16.715Z,0
2017-03-02T04:56:16.268Z,0
2017-03-02T04:57:15.929Z,0
2017-03-02T04:58:16.236Z,0
2017-03-02T04:59:17.286Z,0
2017-03-02T05:00:15.850Z,0
2017-03-02T05:01:16.333Z,0
2017-03-02T05:02:15.554Z,0
2017-03-02T05:03:15.951Z,0
2017-03-02T05:04:16.282Z,0
2017-03-02T05:05:15.427Z,0
2017-03-02T05:06:17.018Z,0
2017-03-02T05:07:16.387Z,0
2017-03-02T05:08:16.319Z,0
2017-03-02T05:09:15.938Z,0
2017-03-02T05:10:17.113Z,0
2017-03-02T05:11:16.349Z,0
2017-03-02T05:12:16.293Z,0
2017-03-02T05:13:16.317Z,0
2017-03-02T05:14:19.314Z,0
2017-03-02T05:15:15.573Z,0
2017-03-02T05:16:16.439Z,0
2017-03-02T05:17:15.837Z,0
2017-03-02T05:18:16.286Z,0
2017-03-02T05:19:15.551Z,0
2017-03-02T05:20:16.402Z,0
2017-03-02T05:21:16.865Z,0
2017-03-02T05:22:17.564Z,0
2017-03-02T05:23:16.681Z,0
2017-03-02T05:24:16.368Z,0
2017-03-02T05:25:15.980Z,0
2017-03-02T05:26:16.435Z,0
2017-03-02T05:27:16.472Z,0
2017-03-02T05:28:16.613Z,0
2017-03-02T05:29:16.698Z,0
2017-03-02T05:30:15.964Z,0
2017-03-02T05:31:16.549Z,0
2017-03-02T05:32:16.305Z,0
2017-03-02T05:33:16.690Z,0
2017-03-02T05:34:16.456Z,0
2017-03-02T05:35:16.488Z,0
2017-03-02T05:36:16.105Z,0
2017-03-02T05:37:16.406Z,0
2017-03-02T05:38:16.166Z,0
2017-03-02T05:39:16.412Z,0
2017-03-02T05:40:16.427Z,0
2017-03-02T05:41:17.712Z,0
2017-03-02T05:42:16.126Z,0
2017-03-02T05:43:16.413Z,0
2017-03-02T05:44:16.449Z,0
2017-03-02T05:45:17.703Z,0
2017-03-02T05:46:16.064Z,0
2017-03-02T05:47:16.622Z,0
2017-03-02T05:48:16.575Z,0
2017-03-02T05:49:16.124Z,0
2017-03-02T05:50:15.695Z,0
2017-03-02T05:51:16.542Z,0
2017-03-02T05:52:17.640Z,0
2017-03-02T05:53:16.600Z,0
2017-03-02T05:54:16.598Z,0
2017-03-02T05:55:16.513Z,0
2017-03-02T05:56:17.795Z,0
2017-03-02T05:57:16.698Z,0
2017-03-02T05:58:16.133Z,0
2017-03-02T05:59:16.633Z,0
2017-03-02T06:00:16.211Z,0
2017-03-02T06:01:16.673Z,0
2017-03-02T06:02:16.327Z,0
2017-03-02T06:03:17.660Z,0
2017-03-02T06:04:16.283Z,0
2017-03-02T06:05:16.642Z,0
2017-03-02T06:06:16.684Z,0
2017-03-02T06:07:17.654Z,0
2017-03-02T06:08:16.941Z,0
2017-03-02T06:09:15.479Z,0
2017-03-02T06:10:16.652Z,0
2017-03-02T06:11:15.961Z,0
2017-03-02T06:12:16.674Z,0
2017-03-02T06:13:16.677Z,0
2017-03-02T06:14:16.631Z,0
2017-03-02T06:15:16.670Z,0
2017-03-02T06:16:15.954Z,0
2017-03-02T06:17:16.716Z,0
2017-03-02T06:18:17.340Z,0
2017-03-02T06:19:16.772Z,0
2017-03-02T06:20:16.319Z,0
2017-03-02T06:21:16.024Z,0
2017-03-02T06:22:16.674Z,0
2017-03-02T06:23:16.829Z,0
2017-03-02T06:24:16.822Z,0
2017-03-02T06:25:16.293Z,0
2017-03-02T06:26:16.049Z,0
2017-03-02T06:27:16.364Z,0
2017-03-02T06:28:16.316Z,0
2017-03-02T06:29:17.482Z,0
2017-03-02T06:30:16.375Z,0
2017-03-02T06:31:16.432Z,0
2017-03-02T06:32:16.056Z,0
2017-03-02T06:33:16.900Z,0
2017-03-02T06:34:16.347Z,0
2017-03-02T06:35:16.798Z,0
2017-03-02T06:36:16.711Z,0
2017-03-02T06:37:16.498Z,0
2017-03-02T06:38:16.817Z,0
2017-03-02T06:39:16.458Z,0
2017-03-02T06:40:17.502Z,0
2017-03-02T06:41:16.449Z,0
2017-03-02T06:42:16.873Z,0
2017-03-02T06:43:16.425Z,0
2017-03-02T06:44:18.733Z,0
2017-03-02T06:45:16.199Z,0
2017-03-02T06:46:16.838Z,0
2017-03-02T06:47:16.071Z,0
2017-03-02T06:48:16.847Z,0
2017-03-02T06:49:18.159Z,0
2017-03-02T06:50:16.144Z,0
2017-03-02T06:51:17.453Z,0
2017-03-02T06:52:16.470Z,5
2017-03-02T06:53:16.082Z,5
2017-03-02T06:54:16.222Z,5
2017-03-02T06:55:16.974Z,5
2017-03-02T06:56:16.936Z,5
2017-03-02T06:57:16.956Z,5
2017-03-02T06:58:16.137Z,5
2017-03-02T06:59:17.029Z,5
2017-03-02T07:00:16.617Z,0
2017-03-02T07:01:17.016Z,0
2017-03-02T07:02:17.121Z,0
2017-03-02T07:03:16.929Z,0
2017-03-02T07:04:16.023Z,0
2017-03-02T07:05:16.608Z,0
2017-03-02T07:06:16.711Z,0
2017-03-02T07:07:16.676Z,0
2017-03-02T07:08:16.615Z,0
2017-03-02T07:09:16.275Z,5
2017-03-02T07:10:17.036Z,10
2017-03-02T07:11:16.579Z,10
2017-03-02T07:12:17.066Z,10
2017-03-02T07:13:17.088Z,10
2017-03-02T07:14:16.354Z,15
2017-03-02T07:15:18.509Z,20
2017-03-02T07:16:16.696Z,30
2017-03-02T07:17:17.105Z,35
2017-03-02T07:18:16.672Z,35
2017-03-02T07:19:17.115Z,35
2017-03-02T07:20:16.632Z,35
2017-03-02T07:21:16.701Z,30
2017-03-02T07:22:16.333Z,30
2017-03-02T07:23:17.135Z,25
2017-03-02T07:24:17.077Z,25
2017-03-02T07:25:17.363Z,20
2017-03-02T07:26:18.451Z,15
2017-03-02T07:27:17.073Z,10
2017-03-02T07:28:17.233Z,10
2017-03-02T07:29:17.227Z,5
2017-03-02T07:30:17.227Z,5
2017-03-02T07:31:17.199Z,0
2017-03-02T07:32:17.245Z,0
2017-03-02T07:33:17.178Z,0
2017-03-02T07:34:17.159Z,5
2017-03-02T07:35:17.010Z,5
2017-03-02T07:36:17.240Z,5
2017-03-02T07:37:18.662Z,10
2017-03-02T07:38:16.850Z,5
2017-03-02T07:39:17.827Z,5
2017-03-02T07:40:17.255Z,5
2017-03-02T07:41:17.275Z,5
2017-03-02T07:42:16.801Z,10
2017-03-02T07:43:17.268Z,10
2017-03-02T07:44:16.879Z,15
2017-03-02T07:45:17.180Z,15
2017-03-02T07:46:17.675Z,15
2017-03-02T07:47:17.787Z,15
2017-03-02T07:48:18.224Z,15
2017-03-02T07:49:16.810Z,10
2017-03-02T07:50:17.702Z,10
2017-03-02T07:51:17.363Z,10
2017-03-02T07:52:17.260Z,10
2017-03-02T07:53:17.824Z,10
2017-03-02T07:54:17.380Z,10
2017-03-02T07:55:16.938Z,10
2017-03-02T07:56:17.350Z,10
2017-03-02T07:57:17.356Z,10
2017-03-02T07:58:17.330Z,10
2017-03-02T07:59:16.977Z,15
2017-03-02T08:00:17.275Z,15
2017-03-02T08:01:17.724Z,15
2017-03-02T08:02:16.543Z,15
2017-03-02T08:03:17.354Z,10
2017-03-02T08:04:17.387Z,10
2017-03-02T08:05:16.955Z,10
2017-03-02T08:06:17.277Z,10
2017-03-02T08:07:17.408Z,10
2017-03-02T08:08:17.026Z,10
2017-03-02T08:09:17.478Z,10
2017-03-02T08:10:16.638Z,10
2017-03-02T08:11:17.038Z,10
2017-03-02T08:12:17.831Z,10
2017-03-02T08:13:17.460Z,10
2017-03-02T08:14:31.952Z,10
2017-03-02T08:15:17.071Z,10
2017-03-02T08:16:17.089Z,10
2017-03-02T08:17:17.404Z,10
2017-03-02T08:18:17.110Z,10
2017-03-02T08:19:17.095Z,15
2017-03-02T08:20:17.010Z,15
2017-03-02T08:21:16.366Z,15
2017-03-02T08:22:17.587Z,15
2017-03-02T08:23:18.024Z,15
2017-03-02T08:24:17.558Z,10
2017-03-02T08:25:17.498Z,15
2017-03-02T08:26:18.814Z,15
2017-03-02T08:27:17.304Z,10
2017-03-02T08:28:17.623Z,15
2017-03-02T08:29:16.713Z,15
2017-03-02T08:30:17.231Z,15
2017-03-02T08:31:17.134Z,15
2017-03-02T08:32:18.115Z,15
2017-03-02T08:33:17.397Z,15
2017-03-02T08:34:17.817Z,10
2017-03-02T08:35:17.210Z,10
2017-03-02T08:36:18.945Z,10
2017-03-02T08:37:17.316Z,10
2017-03-02T08:38:17.178Z,10
2017-03-02T08:39:17.907Z,10
2017-03-02T08:40:17.639Z,10
2017-03-02T08:41:17.150Z,10
2017-03-02T08:42:17.386Z,10
2017-03-02T08:43:18.428Z,10
2017-03-02T08:44:17.756Z,10
2017-03-02T08:45:17.673Z,10
2017-03-02T08:46:16.482Z,10
2017-03-02T08:47:18.457Z,10
2017-03-02T08:48:17.325Z,15
2017-03-02T08:49:17.305Z,15
2017-03-02T08:50:17.761Z,15
2017-03-02T08:51:17.680Z,15
2017-03-02T08:52:16.930Z,15
2017-03-02T08:53:17.302Z,15
2017-03-02T08:54:17.349Z,10
2017-03-02T08:55:17.312Z,10
2017-03-02T08:56:17.351Z,10
2017-03-02T08:57:17.807Z,10
2017-03-02T08:58:18.607Z,15
2017-03-02T08:59:17.693Z,15
2017-03-02T09:00:17.344Z,15
2017-03-02T09:01:17.695Z,15
2017-03-02T09:02:17.904Z,15
2017-03-02T09:03:17.424Z,15
2017-03-02T09:04:17.465Z,15
2017-03-02T09:05:18.076Z,15
2017-03-02T09:06:17.388Z,15
2017-03-02T09:07:17.860Z,15
2017-03-02T09:08:16.994Z,15
2017-03-02T09:09:18.602Z,20
2017-03-02T09:10:17.006Z,20
2017-03-02T09:11:17.815Z,20
2017-03-02T09:12:17.441Z,20
2017-03-02T09:13:17.790Z,15
2017-03-02T09:14:17.544Z,15
2017-03-02T09:15:17.435Z,20
2017-03-02T09:16:17.841Z,20
2017-03-02T09:17:17.520Z,20
2017-03-02T09:18:17.071Z,20
2017-03-02T09:19:17.521Z,25
2017-03-02T09:20:19.221Z,25
2017-03-02T09:21:17.891Z,25
2017-03-02T09:22:17.157Z,25
2017-03-02T09:23:17.143Z,20
2017-03-02T09:24:17.941Z,20
2017-03-02T09:25:17.453Z,20
2017-03-02T09:26:17.923Z,20
2017-03-02T09:27:17.923Z,20
2017-03-02T09:28:17.880Z,20
2017-03-02T09:29:17.697Z,20
2017-03-02T09:30:17.553Z,20
2017-03-02T09:31:18.057Z,20
2017-03-02T09:32:17.674Z,20
2017-03-02T09:33:18.892Z,20
2017-03-02T09:34:17.983Z,20
2017-03-02T09:35:17.731Z,20
2017-03-02T09:36:17.261Z,20
2017-03-02T09:37:17.599Z,20
2017-03-02T09:38:18.123Z,20
2017-03-02T09:39:17.601Z,20
2017-03-02T09:40:17.274Z,25
2017-03-02T09:41:18.017Z,20
2017-03-02T09:42:18.464Z,20
2017-03-02T09:43:17.493Z,20
2017-03-02T09:44:19.718Z,25
2017-03-02T09:45:17.206Z,35
2017-03-02T09:46:18.153Z,25
2017-03-02T09:47:18.063Z,25
2017-03-02T09:48:18.041Z,20
2017-03-02T09:49:18.048Z,25
2017-03-02T09:50:18.183Z,25
2017-03-02T09:51:17.850Z,25
2017-03-02T09:52:17.978Z,25
2017-03-02T09:53:18.065Z,25
2017-03-02T09:54:17.390Z,25
2017-03-02T09:55:18.938Z,30
2017-03-02T09:56:17.373Z,35
2017-03-02T09:57:17.979Z,40
2017-03-02T09:58:17.804Z,35
2017-03-02T09:59:18.453Z,30
2017-03-02T10:00:18.205Z,30
2017-03-02T10:01:18.215Z,30
2017-03-02T10:02:18.217Z,30
2017-03-02T10:03:17.781Z,30
2017-03-02T10:04:17.835Z,25
2017-03-02T10:05:18.198Z,30
2017-03-02T10:06:19.397Z,35
2017-03-02T10:07:18.529Z,35
2017-03-02T10:08:17.889Z,40
2017-03-02T10:09:17.865Z,35
2017-03-02T10:10:18.279Z,35
2017-03-02T10:11:18.258Z,30
2017-03-02T10:12:17.922Z,25
2017-03-02T10:13:18.296Z,20
2017-03-02T10:14:17.933Z,20
2017-03-02T10:15:17.874Z,20
2017-03-02T10:16:17.919Z,20
2017-03-02T10:17:19.327Z,20
2017-03-02T10:18:18.386Z,25
2017-03-02T10:19:19.805Z,25
2017-03-02T10:20:17.500Z,20
2017-03-02T10:21:18.416Z,20
2017-03-02T10:22:18.289Z,20
2017-03-02T10:23:18.327Z,20
2017-03-02T10:24:18.293Z,20
2017-03-02T10:25:17.949Z,20
2017-03-02T10:26:18.487Z,20
2017-03-02T10:27:18.417Z,20
2017-03-02T10:28:19.160Z,20
2017-03-02T10:29:18.036Z,20
2017-03-02T10:30:18.365Z,25
2017-03-02T10:31:18.084Z,30
2017-03-02T10:32:18.032Z,30
2017-03-02T10:33:17.948Z,30
2017-03-02T10:34:17.998Z,25
2017-03-02T10:35:18.101Z,30
2017-03-02T10:36:17.822Z,30
2017-03-02T10:37:18.409Z,30
2017-03-02T10:38:18.413Z,35
2017-03-02T10:39:19.130Z,40
2017-03-02T10:40:18.044Z,40
2017-03-02T10:41:18.461Z,35
2017-03-02T10:42:18.063Z,30
2017-03-02T10:43:19.017Z,25
2017-03-02T10:44:18.154Z,25
2017-03-02T10:45:17.699Z,25
2017-03-02T10:46:17.633Z,25
2017-03-02T10:47:18.546Z,25
2017-03-02T10:48:18.164Z,20
2017-03-02T10:49:18.683Z,20
2017-03-02T10:50:19.011Z,25
2017-03-02T10:51:18.129Z,20
2017-03-02T10:52:18.183Z,20
2017-03-02T10:53:18.192Z,15
2017-03-02T10:54:18.844Z,20
2017-03-02T10:55:18.489Z,15
2017-03-02T10:56:18.172Z,15
2017-03-02T10:57:18.612Z,15
2017-03-02T10:58:18.221Z,15
2017-03-02T10:59:18.250Z,20
2017-03-02T11:00:18.664Z,20
2017-03-02T11:01:18.150Z,20
2017-03-02T11:02:18.596Z,20
2017-03-02T11:03:19.798Z,15
2017-03-02T11:04:18.741Z,15
2017-03-02T11:05:18.736Z,15
2017-03-02T11:06:17.916Z,10
2017-03-02T11:07:18.583Z,10
2017-03-02T11:08:18.250Z,10
2017-03-02T11:09:18.253Z,15
2017-03-02T11:10:18.663Z,20
2017-03-02T11:11:18.257Z,25
2017-03-02T11:12:18.795Z,25
2017-03-02T11:13:18.378Z,25
2017-03-02T11:14:19.816Z,20
2017-03-02T11:15:18.399Z,20
2017-03-02T11:16:19.361Z,15
2017-03-02T11:17:18.326Z,15
2017-03-02T11:18:18.305Z,20
2017-03-02T11:19:18.812Z,15
2017-03-02T11:20:18.726Z,15
2017-03-02T11:21:18.789Z,20
2017-03-02T11:22:18.396Z,20
2017-03-02T11:23:18.830Z,25
2017-03-02T11:24:18.130Z,25
2017-03-02T11:25:19.369Z,30
2017-03-02T11:26:18.895Z,30
2017-03-02T11:27:18.489Z,30
2017-03-02T11:28:18.838Z,30
2017-03-02T11:29:18.457Z,30
2017-03-02T11:30:18.032Z,35
2017-03-02T11:31:18.587Z,35
2017-03-02T11:32:18.589Z,35
2017-03-02T11:33:19.403Z,35
2017-03-02T11:34:18.441Z,35
2017-03-02T11:35:18.434Z,40
2017-03-02T11:36:19.562Z,40
2017-03-02T11:37:18.896Z,40
2017-03-02T11:38:18.219Z,45
2017-03-02T11:39:18.459Z,45
2017-03-02T11:40:19.683Z,45
2017-03-02T11:41:18.532Z,45
2017-03-02T11:42:18.878Z,40
2017-03-02T11:43:18.595Z,40
2017-03-02T11:44:18.960Z,40
2017-03-02T11:45:18.987Z,45
2017-03-02T11:46:18.532Z,40
2017-03-02T11:47:19.519Z,40
2017-03-02T11:48:18.591Z,45
2017-03-02T11:49:18.540Z,45
2017-03-02T11:50:18.595Z,45
2017-03-02T11:51:19.556Z,45
2017-03-02T11:52:18.521Z,45
2017-03-02T11:53:19.027Z,50
2017-03-02T11:54:18.719Z,50
2017-03-02T11:55:18.603Z,45
2017-03-02T11:56:19.028Z,45
2017-03-02T11:57:18.640Z,45
2017-03-02T11:58:19.217Z,45
2017-03-02T11:59:18.286Z,40
2017-03-02T12:00:18.647Z,45
2017-03-02T12:01:18.338Z,45
2017-03-02T12:02:19.706Z,40
2017-03-02T12:03:18.730Z,40
2017-03-02T12:04:18.708Z,35
2017-03-02T12:05:19.090Z,35
2017-03-02T12:06:19.158Z,35
2017-03-02T12:07:18.674Z,40
2017-03-02T12:08:18.644Z,40
2017-03-02T12:09:19.074Z,40
2017-03-02T12:10:18.244Z,45
2017-03-02T12:11:19.773Z,45
2017-03-02T12:12:19.122Z,45
2017-03-02T12:13:19.511Z,40
2017-03-02T12:14:20.073Z,40
2017-03-02T12:15:19.187Z,40
2017-03-02T12:16:19.137Z,40
2017-03-02T12:17:19.248Z,45
2017-03-02T12:18:18.420Z,40
2017-03-02T12:19:19.453Z,35
2017-03-02T12:20:18.929Z,35
2017-03-02T12:21:18.778Z,35
2017-03-02T12:22:18.323Z,40
2017-03-02T12:23:18.353Z,35
2017-03-02T12:24:19.253Z,35
2017-03-02T12:25:18.411Z,35
2017-03-02T12:26:18.123Z,35
2017-03-02T12:27:18.916Z,35
2017-03-02T12:28:18.928Z,35
2017-03-02T12:29:18.967Z,35
2017-03-02T12:30:19.278Z,35
2017-03-02T12:31:19.256Z,35
2017-03-02T12:32:19.319Z,35
2017-03-02T12:33:19.657Z,40
2017-03-02T12:34:18.930Z,40
2017-03-02T12:35:19.938Z,40
2017-03-02T12:36:19.360Z,40
2017-03-02T12:37:20.608Z,45
2017-03-02T12:38:18.985Z,45
2017-03-02T12:39:19.352Z,50
2017-03-02T12:40:19.328Z,50
2017-03-02T12:41:19.307Z,50
2017-03-02T12:42:19.310Z,50
2017-03-02T12:43:19.401Z,50
2017-03-02T12:45:02.696Z,40
2017-03-02T12:45:19.391Z,40
2017-03-02T12:46:19.414Z,40
2017-03-02T12:47:19.376Z,35
2017-03-02T12:48:20.567Z,30
2017-03-02T12:49:19.394Z,30
2017-03-02T12:50:19.344Z,30
2017-03-02T12:51:19.529Z,25
2017-03-02T12:52:19.123Z,25
2017-03-02T12:53:19.439Z,25
2017-03-02T12:54:19.438Z,25
2017-03-02T12:55:20.441Z,25
2017-03-02T12:56:19.487Z,25
2017-03-02T12:57:19.505Z,25
2017-03-02T12:58:18.826Z,25
2017-03-02T12:59:19.106Z,20
2017-03-02T13:00:19.447Z,20
2017-03-02T13:01:20.224Z,20
2017-03-02T13:02:18.675Z,20
2017-03-02T13:03:19.580Z,20
2017-03-02T13:04:21.066Z,25
2017-03-02T13:05:20.099Z,25
2017-03-02T13:06:19.822Z,20
2017-03-02T13:07:19.104Z,20
2017-03-02T13:08:18.706Z,25
2017-03-02T13:09:19.235Z,25
2017-03-02T13:10:19.535Z,25
2017-03-02T13:11:19.289Z,25
2017-03-02T13:12:19.197Z,25
2017-03-02T13:13:19.338Z,25
2017-03-02T13:14:19.387Z,25
2017-03-02T13:15:19.769Z,25
2017-03-02T13:16:19.767Z,25
2017-03-02T13:17:19.542Z,25
2017-03-02T13:18:19.697Z,25
2017-03-02T13:19:18.753Z,20
2017-03-02T13:20:19.686Z,20
2017-03-02T13:21:19.656Z,20
2017-03-02T13:22:20.105Z,20
2017-03-02T13:23:19.703Z,20
2017-03-02T13:24:19.756Z,20
2017-03-02T13:25:19.750Z,20
2017-03-02T13:26:19.788Z,15
2017-03-02T13:27:19.826Z,20
2017-03-02T13:28:19.771Z,15
2017-03-02T13:29:20.817Z,15
2017-03-02T13:30:19.795Z,15
2017-03-02T13:31:21.601Z,15
2017-03-02T13:32:19.841Z,15
2017-03-02T13:33:19.013Z,15
2017-03-02T13:34:19.468Z,15
2017-03-02T13:35:19.385Z,15
2017-03-02T13:36:19.524Z,15
2017-03-02T13:37:19.278Z,15
2017-03-02T13:38:21.118Z,20
2017-03-02T13:39:19.486Z,20
2017-03-02T13:40:19.525Z,20
2017-03-02T13:41:19.375Z,15
2017-03-02T13:42:19.800Z,15
2017-03-02T13:43:20.094Z,15
2017-03-02T13:44:19.825Z,15
2017-03-02T13:45:19.509Z,15
2017-03-02T13:46:19.897Z,15
2017-03-02T13:47:19.942Z,15
2017-03-02T13:48:19.529Z,20
2017-03-02T13:49:19.481Z,20
2017-03-02T13:50:20.029Z,20
2017-03-02T13:51:19.444Z,15
2017-03-02T13:52:20.660Z,15
2017-03-02T13:53:18.780Z,15
2017-03-02T13:54:19.110Z,15
2017-03-02T13:55:20.031Z,15
2017-03-02T13:56:19.509Z,15
2017-03-02T13:57:19.709Z,15
2017-03-02T13:58:19.947Z,20
2017-03-02T13:59:21.208Z,20
2017-03-02T14:00:19.566Z,25
2017-03-02T14:01:19.822Z,25
2017-03-02T14:02:19.996Z,25
2017-03-02T14:03:19.958Z,30
2017-03-02T14:04:19.239Z,25
2017-03-02T14:05:19.945Z,20
2017-03-02T14:06:20.140Z,20
2017-03-02T14:07:19.946Z,20
2017-03-02T14:08:20.071Z,15
2017-03-02T14:09:20.058Z,15
2017-03-02T14:10:21.171Z,15
2017-03-02T14:11:19.837Z,15
2017-03-02T14:12:20.076Z,10
2017-03-02T14:13:19.390Z,10
2017-03-02T14:14:19.732Z,10
2017-03-02T14:15:21.299Z,15
2017-03-02T14:16:21.148Z,15
2017-03-02T14:17:20.184Z,10
2017-03-02T14:18:20.193Z,10
2017-03-02T14:19:19.364Z,10
2017-03-02T14:20:19.900Z,5
2017-03-02T14:21:19.463Z,10
2017-03-02T14:22:21.881Z,10
2017-03-02T14:23:19.935Z,10
2017-03-02T14:24:19.920Z,15
2017-03-02T14:25:19.521Z,15
2017-03-02T14:26:19.754Z,15
2017-03-02T14:27:19.927Z,15
2017-03-02T14:28:19.815Z,15
2017-03-02T14:29:21.236Z,15
2017-03-02T14:30:20.328Z,15
2017-03-02T14:31:20.059Z,20